Time;durP1;ratioP1;P1;durP2;ratioP2;P2;SDS_P1;SDS_P2;PMS_P1;PMS_P2;Temp;Humidity;BMP_temperature;BMP_pressure;BME280_temperature;BME280_humidity;BME280_pressure;Samples;Min_cycle;Max_cycle;Signal;HPM_P1;HPM_P2
2024/02/02 00:01:08;;;;;;;11.87;4.60;;;28.40;68.60;;;;;;5062785;28;20186;-76
2024/02/02 00:03:35;;;;;;;10.50;4.33;;;28.60;69.60;;;;;;5074189;28;20182;-75
2024/02/02 00:06:02;;;;;;;9.40;4.40;;;28.80;69.30;;;;;;5064289;28;20187;-76
2024/02/02 00:08:30;;;;;;;10.03;4.53;;;28.80;69.40;;;;;;5069169;28;20533;-73
2024/02/02 00:10:57;;;;;;;7.77;4.43;;;28.70;69.00;;;;;;5064074;28;20233;-77
2024/02/02 00:13:25;;;;;;;11.27;4.60;;;28.70;68.50;;;;;;5069740;28;20637;-73
2024/02/02 00:15:52;;;;;;;13.40;4.97;;;28.80;68.20;;;;;;5067957;28;20187;-75
2024/02/02 00:18:20;;;;;;;9.50;4.13;;;29.20;67.60;;;;;;5066124;28;20175;-73
2024/02/02 00:20:48;;;;;;;12.27;4.47;;;29.20;67.70;;;;;;5071952;28;20229;-75
2024/02/02 00:23:15;;;;;;;10.63;4.30;;;29.30;67.00;;;;;;5075044;28;20217;-75
2024/02/02 00:25:43;;;;;;;15.43;4.30;;;29.00;67.40;;;;;;5065384;28;21131;-75
2024/02/02 00:28:10;;;;;;;10.97;3.90;;;29.00;68.80;;;;;;5070656;28;20211;-72
2024/02/02 00:30:37;;;;;;;8.87;4.10;;;29.10;68.40;;;;;;5066729;28;20726;-75
2024/02/02 00:33:06;;;;;;;18.03;4.70;;;28.80;69.30;;;;;;5070645;28;20187;-75
2024/02/02 00:35:33;;;;;;;14.20;3.90;;;28.70;69.40;;;;;;5065499;28;20229;-72
2024/02/02 00:38:01;;;;;;;12.83;3.97;;;29.00;69.10;;;;;;5072751;28;20175;-73
2024/02/02 00:40:29;;;;;;;11.50;3.77;;;29.00;68.00;;;;;;5066389;28;20190;-73
2024/02/02 00:42:56;;;;;;;11.17;3.50;;;29.00;68.40;;;;;;5064052;28;20576;-72
2024/02/02 00:45:23;;;;;;;10.30;3.50;;;29.10;67.70;;;;;;5064368;28;20188;-71
2024/02/02 00:47:51;;;;;;;8.30;3.67;;;29.10;66.90;;;;;;5068587;28;20183;-72
2024/02/02 00:50:18;;;;;;;11.70;3.83;;;29.10;66.40;;;;;;5068296;28;20306;-76
2024/02/02 00:52:45;;;;;;;7.43;3.50;;;29.10;65.90;;;;;;5063385;28;20226;-71
2024/02/02 00:55:13;;;;;;;9.87;3.93;;;29.20;66.00;;;;;;5066832;28;20238;-77
2024/02/02 00:57:40;;;;;;;7.00;3.80;;;29.30;64.70;;;;;;5060604;28;20175;-74
2024/02/02 01:00:10;;;;;;;11.43;3.70;;;29.30;64.80;;;;;;5071338;28;20245;-76
2024/02/02 01:02:39;;;;;;;9.40;4.37;;;29.00;65.60;;;;;;5070441;28;20221;-72
2024/02/02 01:05:08;;;;;;;9.37;3.43;;;29.30;66.00;;;;;;5065562;28;20262;-73
2024/02/02 01:07:36;;;;;;;9.07;3.57;;;29.50;64.30;;;;;;5064875;28;20187;-77
2024/02/02 01:10:06;;;;;;;11.60;3.77;;;29.50;64.80;;;;;;5070662;28;20580;-75
2024/02/02 01:12:35;;;;;;;8.80;3.70;;;29.30;63.70;;;;;;5063474;28;20184;-75
2024/02/02 01:15:02;;;;;;;7.90;3.03;;;29.50;63.20;;;;;;5060276;28;20183;-73
2024/02/02 01:17:30;;;;;;;7.80;3.10;;;29.60;61.70;;;;;;5067015;28;20187;-74
2024/02/02 01:20:03;;;;;;;8.63;3.60;;;29.30;63.40;;;;;;5068798;28;20238;-73
2024/02/02 01:22:30;;;;;;;13.43;3.73;;;29.50;63.10;;;;;;5066128;28;20520;-73
2024/02/02 01:24:58;;;;;;;7.77;3.17;;;29.60;62.40;;;;;;5067127;28;20190;-78
2024/02/02 01:27:25;;;;;;;8.73;3.53;;;29.50;62.30;;;;;;5073598;28;20175;-73
2024/02/02 01:29:53;;;;;;;6.60;3.03;;;29.40;61.80;;;;;;5074079;28;20298;-73
2024/02/02 01:32:20;;;;;;;9.57;3.27;;;29.50;61.90;;;;;;5071105;28;20184;-74
2024/02/02 01:34:47;;;;;;;9.03;3.27;;;29.40;60.90;;;;;;5057656;28;20357;-72
2024/02/02 01:37:15;;;;;;;9.53;2.93;;;29.70;60.90;;;;;;5066562;28;20199;-75
2024/02/02 01:39:42;;;;;;;9.80;3.20;;;29.70;60.60;;;;;;5066562;28;20257;-72
2024/02/02 01:42:09;;;;;;;9.90;3.03;;;29.80;60.00;;;;;;5062883;28;20257;-79
2024/02/02 01:44:37;;;;;;;6.53;3.10;;;29.90;59.50;;;;;;5068883;28;20245;-72
2024/02/02 01:47:05;;;;;;;6.43;2.90;;;29.90;58.70;;;;;;5076201;28;20175;-71
2024/02/02 01:49:34;;;;;;;9.60;3.53;;;30.10;60.10;;;;;;5068578;28;20222;-72
2024/02/02 01:52:02;;;;;;;11.03;3.20;;;30.00;59.50;;;;;;5069313;28;20512;-73
2024/02/02 01:54:30;;;;;;;8.73;3.42;;;30.50;59.50;;;;;;5063190;28;20196;-73
2024/02/02 01:56:57;;;;;;;9.43;3.25;;;30.60;59.40;;;;;;5066086;28;20197;-71
2024/02/02 01:59:25;;;;;;;10.27;3.33;;;30.30;60.10;;;;;;5068971;28;20517;-73
2024/02/02 02:01:52;;;;;;;11.40;3.58;;;30.30;60.30;;;;;;5064820;28;20180;-72
2024/02/02 02:04:20;;;;;;;8.38;3.38;;;30.50;59.50;;;;;;5060769;28;20286;-74
2024/02/02 02:06:47;;;;;;;11.43;4.18;;;30.60;58.50;;;;;;5070135;28;20183;-74
2024/02/02 02:09:14;;;;;;;10.77;3.80;;;30.90;57.80;;;;;;5062334;28;20220;-74
2024/02/02 02:11:43;;;;;;;7.25;3.67;;;30.60;57.20;;;;;;5062492;28;20190;-73
2024/02/02 02:14:10;;;;;;;10.57;3.70;;;30.90;58.50;;;;;;5067720;28;20544;-72
2024/02/02 02:16:42;;;;;;;5.80;3.83;;;30.70;56.60;;;;;;5063783;28;20176;-71
2024/02/02 02:19:14;;;;;;;14.68;5.18;;;30.60;57.90;;;;;;5063891;28;20187;-73
2024/02/02 02:21:41;;;;;;;11.37;3.87;;;30.60;58.10;;;;;;5063262;28;20183;-73
2024/02/02 02:24:09;;;;;;;10.67;3.33;;;30.70;58.50;;;;;;5061506;28;20211;-70
2024/02/02 02:26:41;;;;;;;10.73;3.30;;;30.70;58.80;;;;;;5065242;28;20270;-71
2024/02/02 02:29:08;;;;;;;7.93;2.97;;;30.80;57.30;;;;;;5061627;28;20207;-74
2024/02/02 02:31:36;;;;;;;8.82;3.38;;;30.80;57.60;;;;;;5066256;28;20187;-73
2024/02/02 02:34:06;;;;;;;8.48;3.80;;;30.80;56.70;;;;;;5059621;28;20217;-73
2024/02/02 02:36:34;;;;;;;5.88;2.90;;;31.00;54.70;;;;;;5065668;28;20223;-73
2024/02/02 02:39:05;;;;;;;9.73;2.95;;;31.20;52.50;;;;;;5062223;28;20248;-71
2024/02/02 02:41:32;;;;;;;8.98;2.70;;;31.50;53.50;;;;;;5057243;28;20195;-72
2024/02/02 02:44:00;;;;;;;9.48;3.13;;;31.40;53.00;;;;;;5069040;28;20191;-72
2024/02/02 02:46:27;;;;;;;7.32;2.38;;;31.70;52.30;;;;;;5067523;28;20187;-74
2024/02/02 02:48:54;;;;;;;5.15;1.85;;;31.80;52.10;;;;;;5058800;28;20221;-71
2024/02/02 02:51:22;;;;;;;6.35;2.20;;;31.80;50.30;;;;;;5063366;28;20225;-71
2024/02/02 02:53:50;;;;;;;7.97;2.40;;;32.20;50.50;;;;;;5071446;28;20551;-74
2024/02/02 02:56:17;;;;;;;10.07;2.42;;;32.30;51.60;;;;;;5069049;28;20191;-76
2024/02/02 02:58:44;;;;;;;9.23;2.80;;;32.40;53.40;;;;;;5072641;28;20272;-75
2024/02/02 03:01:12;;;;;;;9.18;2.88;;;32.40;53.20;;;;;;5072635;28;20327;-78
2024/02/02 03:03:39;;;;;;;6.18;2.08;;;32.30;53.70;;;;;;5073991;28;20190;-78
2024/02/02 03:06:06;;;;;;;6.93;2.85;;;32.40;53.50;;;;;;5062815;28;20175;-76
2024/02/02 03:08:34;;;;;;;9.90;2.67;;;32.10;53.90;;;;;;5061744;28;20584;-78
2024/02/02 03:11:01;;;;;;;6.43;2.30;;;32.20;54.30;;;;;;5073062;28;20188;-78
2024/02/02 03:13:28;;;;;;;10.23;2.92;;;32.30;53.60;;;;;;5067138;28;20186;-76
2024/02/02 03:15:56;;;;;;;9.70;3.00;;;32.40;52.60;;;;;;5071537;28;20550;-75
2024/02/02 03:18:23;;;;;;;5.90;2.53;;;32.40;52.10;;;;;;5065466;28;20180;-72
2024/02/02 03:20:51;;;;;;;8.48;2.30;;;32.80;52.40;;;;;;5064007;28;20242;-73
2024/02/02 03:23:18;;;;;;;7.45;2.72;;;32.80;51.60;;;;;;5070145;28;20211;-72
2024/02/02 03:25:49;;;;;;;10.45;2.75;;;32.90;50.80;;;;;;5073046;28;20214;-75
2024/02/02 03:28:16;;;;;;;11.15;2.72;;;33.10;51.40;;;;;;5069710;28;20278;-75
2024/02/02 03:30:44;;;;;;;6.50;2.42;;;32.90;52.40;;;;;;5070090;28;20211;-74
2024/02/02 03:33:11;;;;;;;11.35;2.92;;;32.20;53.70;;;;;;5074343;28;20630;-76
2024/02/02 03:35:38;;;;;;;8.27;2.40;;;31.90;55.10;;;;;;5073525;28;20265;-74
2024/02/02 03:38:06;;;;;;;7.43;2.15;;;31.80;54.70;;;;;;5068275;28;20522;-73
2024/02/02 03:40:34;;;;;;;9.90;2.85;;;31.90;54.30;;;;;;5066088;28;20266;-75
2024/02/02 03:43:01;;;;;;;8.43;2.78;;;32.30;53.00;;;;;;5073388;28;20183;-76
2024/02/02 03:45:30;;;;;;;9.43;2.47;;;32.30;52.90;;;;;;5067472;28;20191;-75
2024/02/02 03:47:59;;;;;;;10.63;2.72;;;32.40;53.00;;;;;;5063949;28;20176;-72
2024/02/02 03:50:26;;;;;;;6.30;2.42;;;31.80;54.40;;;;;;5068917;28;20284;-71
2024/02/02 03:52:55;;;;;;;8.18;2.50;;;31.80;54.60;;;;;;5074511;28;20175;-74
2024/02/02 03:55:24;;;;;;;8.60;2.45;;;31.10;55.50;;;;;;5062826;28;20234;-74
2024/02/02 03:57:52;;;;;;;7.32;2.40;;;31.80;54.90;;;;;;5067874;28;20175;-75
2024/02/02 04:00:20;;;;;;;6.18;2.10;;;32.30;52.50;;;;;;5073198;28;20191;-73
2024/02/02 04:02:47;;;;;;;8.05;2.30;;;32.70;51.10;;;;;;5066131;28;20179;-73
2024/02/02 04:05:15;;;;;;;7.72;2.20;;;32.80;48.70;;;;;;5067681;28;20180;-72
2024/02/02 04:07:43;;;;;;;8.60;2.60;;;33.00;45.20;;;;;;5069711;28;20650;-73
2024/02/02 04:10:10;;;;;;;5.65;2.10;;;33.20;47.00;;;;;;5073852;28;20314;-72
2024/02/02 04:12:38;;;;;;;4.68;2.05;;;33.20;46.20;;;;;;5067037;28;20179;-76
2024/02/02 04:15:07;;;;;;;5.95;2.35;;;33.20;47.70;;;;;;5067922;28;20187;-71
2024/02/02 04:17:34;;;;;;;8.15;2.20;;;33.70;46.90;;;;;;5071783;28;20541;-76
2024/02/02 04:20:01;;;;;;;8.30;2.53;;;33.20;49.40;;;;;;5062833;28;20704;-76
2024/02/02 04:22:29;;;;;;;7.90;2.22;;;33.50;48.50;;;;;;5070910;28;20187;-73
2024/02/02 04:24:56;;;;;;;8.85;2.15;;;33.50;48.10;;;;;;5070913;28;20190;-72
2024/02/02 04:27:26;;;;;;;9.10;2.42;;;33.30;48.10;;;;;;5062094;28;21252;-73
2024/02/02 04:29:54;;;;;;;6.82;2.58;;;33.10;50.60;;;;;;5064062;28;20211;-73
2024/02/02 04:32:22;;;;;;;6.43;2.10;;;33.30;50.20;;;;;;5071327;28;20196;-74
2024/02/02 04:34:49;;;;;;;9.88;2.65;;;33.30;50.00;;;;;;5064059;28;20219;-72
2024/02/02 04:37:16;;;;;;;5.78;2.13;;;33.00;51.10;;;;;;5059493;28;20760;-72
2024/02/02 04:39:44;;;;;;;7.95;2.20;;;33.00;52.00;;;;;;5074669;28;20175;-71
2024/02/02 04:42:11;;;;;;;9.43;2.55;;;33.10;51.00;;;;;;5073357;28;20176;-74
2024/02/02 04:44:38;;;;;;;12.63;2.97;;;32.30;52.60;;;;;;5083295;28;20305;-74
2024/02/02 04:47:06;;;;;;;7.03;2.17;;;32.30;53.50;;;;;;5069591;28;20226;-77
2024/02/02 04:49:34;;;;;;;9.85;2.28;;;32.30;55.00;;;;;;5064950;28;20239;-78
2024/02/02 04:52:01;;;;;;;10.98;2.67;;;32.80;53.30;;;;;;5066912;28;20222;-75
2024/02/02 04:54:28;;;;;;;8.23;2.00;;;33.40;51.50;;;;;;5066752;28;20203;-79
2024/02/02 04:56:56;;;;;;;7.75;2.38;;;33.30;51.70;;;;;;5065317;28;20226;-78
2024/02/02 04:59:24;;;;;;;10.13;2.83;;;33.30;51.30;;;;;;5064950;28;20534;-74
2024/02/02 05:01:52;;;;;;;7.70;2.42;;;33.90;49.10;;;;;;5073097;28;20175;-75
2024/02/02 05:04:19;;;;;;;5.82;2.20;;;33.80;51.30;;;;;;5069696;28;20256;-71
2024/02/02 05:06:46;;;;;;;10.82;2.67;;;33.70;49.90;;;;;;5061183;28;20556;-71
2024/02/02 05:09:14;;;;;;;11.43;2.63;;;33.50;50.90;;;;;;5065959;28;20264;-75
2024/02/02 05:11:41;;;;;;;8.10;2.65;;;33.00;51.90;;;;;;5068024;28;20264;-75
2024/02/02 05:14:08;;;;;;;10.63;2.85;;;33.10;51.70;;;;;;5065166;28;20171;-71
2024/02/02 05:16:36;;;;;;;12.10;2.63;;;32.80;53.00;;;;;;5063436;28;20596;-74
2024/02/02 05:19:03;;;;;;;8.40;2.63;;;33.40;51.40;;;;;;5064103;28;20266;-73
2024/02/02 05:21:30;;;;;;;8.48;2.58;;;33.60;50.60;;;;;;5063327;28;20194;-74
2024/02/02 05:23:58;;;;;;;9.15;2.65;;;33.70;50.80;;;;;;5069981;28;20684;-71
2024/02/02 05:26:26;;;;;;;6.90;2.55;;;33.50;49.60;;;;;;5068156;28;20188;-74
2024/02/02 05:28:53;;;;;;;9.13;2.63;;;33.40;51.20;;;;;;5062983;28;20294;-76
2024/02/02 05:31:20;;;;;;;12.05;3.28;;;33.70;50.60;;;;;;5069636;28;20241;-75
2024/02/02 05:33:48;;;;;;;10.07;2.85;;;34.00;48.90;;;;;;5066466;28;20186;-72
2024/02/02 05:36:15;;;;;;;9.35;2.70;;;33.40;50.50;;;;;;5060728;28;20227;-75
2024/02/02 05:38:42;;;;;;;9.45;2.80;;;33.10;52.80;;;;;;5065378;28;20324;-75
2024/02/02 05:41:10;;;;;;;11.95;3.72;;;32.50;53.50;;;;;;5070949;28;20232;-74
2024/02/02 05:43:37;;;;;;;13.27;3.00;;;31.80;55.20;;;;;;5071378;28;20226;-75
2024/02/02 05:46:05;;;;;;;11.40;3.00;;;31.70;56.00;;;;;;5059891;28;20261;-73
2024/02/02 05:48:32;;;;;;;11.85;3.55;;;30.70;58.40;;;;;;5056182;28;20184;-69
2024/02/02 05:51:00;;;;;;;13.45;3.00;;;30.40;59.20;;;;;;5062058;28;20210;-70
2024/02/02 05:53:28;;;;;;;11.93;3.17;;;30.30;59.50;;;;;;5065285;28;20279;-71
2024/02/02 05:55:55;;;;;;;14.05;3.38;;;29.80;60.00;;;;;;5066972;28;20705;-72
2024/02/02 05:58:22;;;;;;;15.52;3.33;;;30.30;60.30;;;;;;5068145;28;20176;-72
2024/02/02 06:00:50;;;;;;;10.38;3.03;;;30.90;58.80;;;;;;5066310;28;20202;-72
2024/02/02 06:03:17;;;;;;;10.85;3.17;;;31.90;56.60;;;;;;5063787;28;20229;-72
2024/02/02 06:05:44;;;;;;;12.35;3.60;;;32.50;54.60;;;;;;5068503;28;20217;-74
2024/02/02 06:08:13;;;;;;;14.85;3.60;;;31.70;55.90;;;;;;5067247;28;20198;-73
2024/02/02 06:10:41;;;;;;;8.57;2.83;;;32.30;55.70;;;;;;5065306;28;20206;-75
2024/02/02 06:13:08;;;;;;;13.52;3.13;;;31.30;55.70;;;;;;5064229;28;20646;-74
2024/02/02 06:15:36;;;;;;;16.77;3.88;;;30.90;57.30;;;;;;5063020;28;20190;-73
2024/02/02 06:18:04;;;;;;;13.85;3.75;;;29.70;61.30;;;;;;5067142;28;20205;-72
2024/02/02 06:20:31;;;;;;;13.25;3.17;;;29.50;62.60;;;;;;5064318;28;20222;-72
2024/02/02 06:22:59;;;;;;;11.80;2.88;;;30.20;60.70;;;;;;5069373;28;20241;-72
2024/02/02 06:25:26;;;;;;;13.05;3.90;;;30.00;60.00;;;;;;5065252;28;20267;-71
2024/02/02 06:27:53;;;;;;;12.10;3.40;;;29.30;62.20;;;;;;5078522;28;20389;-73
2024/02/02 06:30:21;;;;;;;16.67;3.83;;;28.80;64.10;;;;;;5063828;28;20628;-73
2024/02/02 06:32:49;;;;;;;17.30;3.60;;;28.50;65.30;;;;;;5064674;28;20194;-72
2024/02/02 06:35:17;;;;;;;14.73;4.30;;;28.30;66.70;;;;;;5069022;28;20305;-74
2024/02/02 06:37:46;;;;;;;12.60;3.77;;;28.60;65.60;;;;;;5061683;28;20281;-73
2024/02/02 06:40:14;;;;;;;13.90;3.63;;;28.40;66.30;;;;;;5056483;28;20234;-72
2024/02/02 06:42:41;;;;;;;17.13;4.47;;;28.30;66.30;;;;;;5068281;28;20183;-73
2024/02/02 06:45:09;;;;;;;12.43;3.73;;;28.30;67.20;;;;;;5065320;28;20218;-73
2024/02/02 06:47:37;;;;;;;14.53;4.10;;;28.20;66.70;;;;;;5065211;28;20203;-71
2024/02/02 06:50:05;;;;;;;18.57;4.00;;;28.10;66.80;;;;;;5067247;28;20215;-72
2024/02/02 06:52:33;;;;;;;14.00;3.70;;;28.10;67.10;;;;;;5069825;28;20176;-74
2024/02/02 06:55:00;;;;;;;16.00;3.57;;;27.90;67.80;;;;;;5064585;28;20182;-72
2024/02/02 06:57:31;;;;;;;14.70;4.03;;;27.80;68.10;;;;;;5063800;28;20180;-73
2024/02/02 07:00:00;;;;;;;12.77;3.67;;;28.40;65.60;;;;;;5056586;28;20203;-72
2024/02/02 07:02:30;;;;;;;16.90;4.10;;;28.90;64.00;;;;;;5069422;28;20202;-73
2024/02/02 07:04:58;;;;;;;12.00;4.23;;;28.70;64.80;;;;;;5062480;28;20548;-72
2024/02/02 07:07:26;;;;;;;12.37;3.97;;;27.90;66.50;;;;;;5058988;28;20183;-73
2024/02/02 07:09:58;;;;;;;13.80;3.97;;;28.80;64.30;;;;;;5065351;28;20211;-72
2024/02/02 07:12:43;;;;;;;11.53;3.83;;;28.40;64.80;;;;;;5070545;28;20324;-71
2024/02/02 07:15:20;;;;;;;14.87;3.93;;;28.00;66.10;;;;;;5056309;28;20190;-72
2024/02/02 07:17:47;;;;;;;15.90;3.47;;;27.60;67.70;;;;;;5060190;28;20175;-72
2024/02/02 07:20:41;;;;;;;15.37;3.17;;;27.50;68.00;;;;;;5057051;28;20179;-71
2024/02/02 07:23:10;;;;;;;13.67;4.03;;;27.60;68.50;;;;;;5062146;28;20246;-72
2024/02/02 07:25:40;;;;;;;13.30;3.67;;;27.30;69.50;;;;;;5072406;28;20226;-73
2024/02/02 07:28:33;;;;;;;13.13;3.57;;;27.10;69.20;;;;;;5078658;28;20206;-72
2024/02/02 07:31:04;;;;;;;12.73;3.77;;;27.10;69.70;;;;;;5065910;28;20261;-71
2024/02/02 07:33:40;;;;;;;10.77;3.43;;;27.00;70.00;;;;;;5072419;28;20652;-71
2024/02/02 07:36:23;;;;;;;15.10;3.70;;;27.10;69.60;;;;;;5072407;28;20234;-72
2024/02/02 07:38:54;;;;;;;12.57;3.80;;;26.90;69.50;;;;;;5080938;28;20588;-73
2024/02/02 07:41:27;;;;;;;11.57;3.40;;;26.80;69.60;;;;;;5076199;28;20649;-71
2024/02/02 07:43:56;;;;;;;17.53;4.70;;;26.80;69.60;;;;;;5075185;28;20211;-70
2024/02/02 07:46:24;;;;;;;16.70;4.27;;;26.80;70.00;;;;;;5066589;28;20196;-71
2024/02/02 07:48:53;;;;;;;15.63;3.93;;;26.80;70.20;;;;;;5075288;28;20570;-71
2024/02/02 07:51:22;;;;;;;12.93;3.53;;;26.60;70.50;;;;;;5075998;28;20179;-72
2024/02/02 07:53:50;;;;;;;15.67;4.03;;;26.30;71.70;;;;;;5075039;28;20210;-72
2024/02/02 07:56:19;;;;;;;13.93;3.90;;;26.30;71.30;;;;;;5070297;28;20187;-72
2024/02/02 07:58:46;;;;;;;15.80;3.90;;;26.30;71.60;;;;;;5077658;28;20235;-74
2024/02/02 08:01:14;;;;;;;15.60;3.97;;;26.40;71.70;;;;;;5078130;28;20657;-72
2024/02/02 08:03:41;;;;;;;14.20;3.70;;;26.40;71.60;;;;;;5074745;28;20187;-73
2024/02/02 08:06:09;;;;;;;19.40;4.00;;;26.30;71.70;;;;;;5075151;28;20533;-71
2024/02/02 08:08:37;;;;;;;12.83;4.20;;;26.30;71.80;;;;;;5074268;28;20214;-71
2024/02/02 08:11:04;;;;;;;12.40;3.70;;;26.20;71.90;;;;;;5074753;28;20195;-71
2024/02/02 08:13:32;;;;;;;13.93;3.50;;;26.20;72.00;;;;;;5081293;28;20524;-78
2024/02/02 08:15:59;;;;;;;18.80;3.83;;;26.10;72.30;;;;;;5070169;28;20176;-75
2024/02/02 08:18:28;;;;;;;13.20;3.83;;;26.10;72.30;;;;;;5069129;28;20178;-76
2024/02/02 08:20:56;;;;;;;11.13;3.63;;;25.90;72.40;;;;;;5069841;28;20210;-73
2024/02/02 08:23:25;;;;;;;9.97;3.13;;;25.90;72.80;;;;;;5080419;28;20190;-76
2024/02/02 08:25:52;;;;;;;12.57;3.60;;;25.90;73.10;;;;;;5075052;28;20258;-72
2024/02/02 08:28:20;;;;;;;15.60;3.77;;;25.80;72.70;;;;;;5067760;28;20183;-75
2024/02/02 08:30:48;;;;;;;17.27;4.07;;;25.90;73.00;;;;;;5073698;28;20219;-77
2024/02/02 08:33:15;;;;;;;12.53;3.83;;;25.70;73.20;;;;;;5074625;28;20187;-73
2024/02/02 08:35:43;;;;;;;11.63;4.00;;;25.60;73.20;;;;;;5074286;28;20737;-74
2024/02/02 08:38:14;;;;;;;21.83;3.83;;;25.60;73.70;;;;;;5074496;28;20187;-75
2024/02/02 08:40:47;;;;;;;15.63;4.00;;;25.40;73.90;;;;;;5074529;28;20183;-77
2024/02/02 08:43:21;;;;;;;14.80;3.73;;;25.40;74.20;;;;;;5075025;28;20612;-74
2024/02/02 08:46:00;;;;;;;14.83;3.97;;;25.40;74.30;;;;;;5074237;28;20239;-73
2024/02/02 08:48:40;;;;;;;19.30;4.40;;;25.30;74.40;;;;;;5071009;28;20236;-74
2024/02/02 08:51:46;;;;;;;15.47;4.27;;;25.30;74.00;;;;;;5075580;28;20663;-74
2024/02/02 08:54:17;;;;;;;17.80;3.77;;;25.20;73.70;;;;;;5074941;28;20208;-75
2024/02/02 08:57:20;;;;;;;14.30;3.63;;;25.10;73.70;;;;;;5076237;28;20268;-74
2024/02/02 08:59:52;;;;;;;12.07;3.43;;;25.00;73.60;;;;;;5076088;28;20269;-73
2024/02/02 09:02:34;;;;;;;18.77;4.00;;;24.90;73.50;;;;;;5081464;28;20187;-72
2024/02/02 09:05:02;;;;;;;13.70;3.70;;;24.80;73.80;;;;;;5079264;28;20213;-73
2024/02/02 09:07:29;;;;;;;16.93;3.77;;;24.80;73.70;;;;;;5078617;28;20179;-74
2024/02/02 09:09:57;;;;;;;11.47;3.97;;;24.80;74.10;;;;;;5078342;28;20207;-73
2024/02/02 09:12:33;;;;;;;16.20;3.50;;;24.60;74.20;;;;;;5079585;28;20516;-75
2024/02/02 09:15:01;;;;;;;16.57;4.13;;;24.60;74.40;;;;;;5078830;28;20647;-73
2024/02/02 09:17:30;;;;;;;15.83;4.27;;;24.60;74.50;;;;;;5074675;28;20182;-73
2024/02/02 09:19:58;;;;;;;15.23;3.60;;;24.50;74.40;;;;;;5069125;28;20191;-77
2024/02/02 09:22:27;;;;;;;15.77;3.63;;;24.50;74.00;;;;;;5077691;28;20262;-76
2024/02/02 09:24:54;;;;;;;22.17;4.47;;;24.40;74.40;;;;;;5082108;28;20204;-72
2024/02/02 09:27:41;;;;;;;18.80;4.33;;;24.40;74.40;;;;;;5075828;28;20236;-74
2024/02/02 09:30:20;;;;;;;15.67;4.40;;;24.30;74.50;;;;;;5074523;28;20214;-71
2024/02/02 09:32:48;;;;;;;23.83;4.13;;;24.40;74.60;;;;;;5068944;28;20262;-71
2024/02/02 09:35:50;;;;;;;14.13;3.67;;;24.30;74.50;;;;;;5073920;28;20219;-72
2024/02/02 09:38:17;;;;;;;14.53;3.30;;;24.30;74.80;;;;;;5070241;28;20559;-70
2024/02/02 09:41:15;;;;;;;18.47;4.33;;;24.20;74.80;;;;;;5077608;28;20194;-77
2024/02/02 09:44:16;;;;;;;19.37;4.33;;;24.10;75.40;;;;;;5073475;28;20183;-72
2024/02/02 09:47:20;;;;;;;16.87;4.20;;;24.20;75.00;;;;;;5071043;28;20783;-72
2024/02/02 09:50:09;;;;;;;24.10;5.20;;;24.30;74.80;;;;;;5068416;28;20560;-72
2024/02/02 09:53:05;;;;;;;17.33;4.33;;;24.30;74.70;;;;;;5070957;28;20179;-72
2024/02/02 09:55:54;;;;;;;18.33;4.63;;;24.30;74.80;;;;;;5073649;28;20656;-70
2024/02/02 09:58:30;;;;;;;15.63;4.00;;;24.20;74.40;;;;;;5072597;28;20198;-71
2024/02/02 10:01:33;;;;;;;15.43;3.83;;;24.20;74.50;;;;;;5071335;28;20194;-71
2024/02/02 10:04:32;;;;;;;29.60;4.77;;;24.20;74.20;;;;;;5035869;28;20208;-70
2024/02/02 10:07:15;;;;;;;16.03;4.37;;;24.30;74.20;;;;;;5072006;28;20179;-71
2024/02/02 10:10:07;;;;;;;20.27;4.60;;;24.30;74.10;;;;;;5072335;28;20226;-73
2024/02/02 10:12:48;;;;;;;19.90;4.70;;;24.30;73.70;;;;;;5073943;28;20183;-74
2024/02/02 10:15:40;;;;;;;19.50;4.07;;;24.30;73.90;;;;;;5072526;28;20187;-70
2024/02/02 10:18:34;;;;;;;17.70;4.27;;;24.30;74.10;;;;;;5069497;28;20563;-70
2024/02/02 10:21:16;;;;;;;19.17;4.43;;;24.20;74.00;;;;;;5072080;28;20179;-71
2024/02/02 10:24:02;;;;;;;24.67;4.70;;;24.30;73.90;;;;;;5075294;28;20195;-71
2024/02/02 10:26:41;;;;;;;19.30;4.20;;;24.20;74.00;;;;;;5072560;28;20633;-71
2024/02/02 10:29:23;;;;;;;21.40;4.60;;;24.20;73.80;;;;;;5070677;28;20214;-72
2024/02/02 10:32:02;;;;;;;16.70;4.40;;;24.20;73.70;;;;;;5070058;28;20210;-71
2024/02/02 10:34:50;;;;;;;19.47;4.90;;;24.10;73.90;;;;;;5072035;28;20186;-72
2024/02/02 10:37:29;;;;;;;26.87;4.87;;;24.10;73.90;;;;;;5069099;28;20561;-72
2024/02/02 10:40:19;;;;;;;26.40;5.07;;;24.00;73.60;;;;;;5072335;28;20258;-71
2024/02/02 10:43:02;;;;;;;27.07;5.47;;;24.00;73.90;;;;;;5055331;28;20196;-71
2024/02/02 10:46:06;;;;;;;27.17;5.83;;;24.00;73.70;;;;;;5067256;28;20262;-72
2024/02/02 10:48:51;;;;;;;19.80;4.80;;;24.00;73.60;;;;;;5072730;28;20202;-72
2024/02/02 10:51:33;;;;;;;29.23;5.33;;;24.00;73.60;;;;;;5069922;28;20649;-73
2024/02/02 10:54:20;;;;;;;24.43;4.70;;;23.80;73.30;;;;;;5071268;28;20260;-74
2024/02/02 10:57:30;;;;;;;23.73;4.33;;;23.80;72.80;;;;;;5072521;28;20270;-74
2024/02/02 11:00:13;;;;;;;16.17;4.67;;;23.80;73.00;;;;;;5068294;28;20693;-73
2024/02/02 11:02:46;;;;;;;18.60;4.33;;;23.80;73.10;;;;;;5066822;28;20181;-72
2024/02/02 11:05:22;;;;;;;25.60;5.13;;;23.90;73.10;;;;;;5071652;28;20187;-74
2024/02/02 11:08:12;;;;;;;28.43;4.83;;;23.80;73.10;;;;;;5064826;28;20270;-78
2024/02/02 11:10:45;;;;;;;23.23;5.57;;;23.80;73.10;;;;;;5068728;28;20218;-71
2024/02/02 11:13:44;;;;;;;24.77;5.00;;;23.80;73.50;;;;;;5071751;28;20566;-72
2024/02/02 11:16:23;;;;;;;26.63;5.47;;;23.80;73.60;;;;;;5064875;28;20665;-72
2024/02/02 11:19:17;;;;;;;23.43;4.77;;;23.90;73.70;;;;;;5074892;28;20649;-76
2024/02/02 11:22:05;;;;;;;26.97;5.00;;;23.90;73.50;;;;;;5065590;28;20252;-72
2024/02/02 11:24:48;;;;;;;26.40;5.90;;;23.90;73.30;;;;;;5074341;28;20537;-74
2024/02/02 11:27:48;;;;;;;25.80;5.33;;;23.80;73.40;;;;;;5075271;28;20179;-73
2024/02/02 11:30:41;;;;;;;23.73;5.17;;;23.80;73.10;;;;;;5067700;28;20231;-69
2024/02/02 11:33:31;;;;;;;26.17;5.77;;;23.80;73.10;;;;;;5067043;28;20233;-71
2024/02/02 11:36:31;;;;;;;23.90;5.13;;;23.90;72.90;;;;;;5074686;28;20272;-71
2024/02/02 11:39:20;;;;;;;29.73;5.50;;;23.90;73.00;;;;;;5074837;28;20176;-71
2024/02/02 11:41:49;;;;;;;28.70;5.40;;;23.80;73.20;;;;;;5075426;28;20175;-73
2024/02/02 11:44:19;;;;;;;26.67;5.20;;;23.80;72.90;;;;;;5075243;28;20229;-71
2024/02/02 11:46:49;;;;;;;25.23;5.37;;;23.70;73.00;;;;;;5075530;28;20182;-71
2024/02/02 11:49:29;;;;;;;29.70;5.70;;;23.70;73.10;;;;;;5067680;28;20730;-75
2024/02/02 11:52:13;;;;;;;31.53;5.60;;;23.80;73.00;;;;;;5080419;28;20647;-73
2024/02/02 11:54:53;;;;;;;24.70;5.10;;;23.70;72.70;;;;;;5069618;28;20585;-73
2024/02/02 11:57:22;;;;;;;29.93;6.00;;;23.70;72.80;;;;;;5082347;28;20183;-71
2024/02/02 11:59:53;;;;;;;27.67;5.60;;;23.70;73.10;;;;;;5074808;28;20179;-69
2024/02/02 12:02:41;;;;;;;27.87;5.63;;;23.70;73.00;;;;;;5075869;28;20240;-69
2024/02/02 12:05:21;;;;;;;30.10;5.40;;;23.80;72.90;;;;;;5077785;28;20183;-71
2024/02/02 12:08:04;;;;;;;36.07;5.97;;;23.70;72.70;;;;;;5075763;28;20175;-69
2024/02/02 12:10:40;;;;;;;26.73;5.53;;;23.70;72.70;;;;;;5080674;28;20305;-71
2024/02/02 12:13:12;;;;;;;31.83;5.40;;;23.70;72.50;;;;;;5070694;28;20175;-71
2024/02/02 12:15:40;;;;;;;29.03;5.53;;;23.70;72.50;;;;;;5077492;28;20233;-71
2024/02/02 12:18:08;;;;;;;38.47;6.33;;;23.70;72.20;;;;;;5080484;28;20183;-70
2024/02/02 12:20:38;;;;;;;41.43;6.23;;;23.70;72.40;;;;;;5083155;28;20179;-71
2024/02/02 12:23:05;;;;;;;30.37;6.43;;;23.60;72.40;;;;;;5083323;28;20270;-73
2024/02/02 12:25:33;;;;;;;36.17;6.20;;;23.60;72.40;;;;;;5077171;28;20183;-71
2024/02/02 12:28:01;;;;;;;29.73;5.93;;;23.60;72.10;;;;;;5077127;28;20183;-72
2024/02/02 12:30:28;;;;;;;30.83;6.10;;;23.50;72.30;;;;;;5074186;28;20214;-72
2024/02/02 12:32:56;;;;;;;29.60;5.23;;;23.40;72.40;;;;;;5079828;28;20183;-72
2024/02/02 12:35:26;;;;;;;33.07;5.80;;;23.40;72.20;;;;;;5074019;28;20318;-73
2024/02/02 12:37:55;;;;;;;37.00;6.67;;;23.30;72.40;;;;;;5074402;28;20176;-72
2024/02/02 12:40:26;;;;;;;32.93;6.07;;;23.30;72.20;;;;;;5074961;28;20179;-72
2024/02/02 12:42:55;;;;;;;35.97;6.60;;;23.30;72.10;;;;;;5077946;28;20175;-71
2024/02/02 12:45:22;;;;;;;36.50;6.27;;;23.30;72.20;;;;;;5074783;28;20186;-71
2024/02/02 12:47:50;;;;;;;30.60;6.40;;;23.30;71.90;;;;;;5073767;28;20186;-70
2024/02/02 12:50:21;;;;;;;37.00;6.97;;;23.40;71.80;;;;;;5067247;28;20253;-71
2024/02/02 12:52:53;;;;;;;32.43;6.50;;;23.40;71.80;;;;;;5064734;28;20190;-70
2024/02/02 12:55:21;;;;;;;32.77;6.50;;;23.40;71.60;;;;;;5069412;28;20266;-71
2024/02/02 12:57:48;;;;;;;35.93;6.03;;;23.30;71.40;;;;;;5074102;28;20712;-73
2024/02/02 13:00:16;;;;;;;42.90;6.03;;;23.40;71.60;;;;;;5068672;28;20183;-72
2024/02/02 13:02:45;;;;;;;30.20;6.40;;;23.40;71.60;;;;;;5064830;28;20540;-69
2024/02/02 13:05:17;;;;;;;29.07;5.77;;;23.30;71.40;;;;;;5075443;28;20190;-73